Time;durP1;ratioP1;P1;durP2;ratioP2;P2;SDS_P1;SDS_P2;PMS_P1;PMS_P2;Temp;Humidity;BMP_temperature;BMP_pressure;BME280_temperature;BME280_humidity;BME280_pressure;Samples;Min_cycle;Max_cycle;Signal;HPM_P1;HPM_P2
2023/11/27 00:01:27;;;;;;;4.22;3.50;;;;;;;;;;10082462;28;20045;-74
2023/11/27 00:06:19;;;;;;;3.67;3.13;;;;;;;;;;10070582;28;20041;-74
2023/11/27 00:11:11;;;;;;;4.03;3.20;;;;;;;;;;10068939;28;20069;-74
2023/11/27 00:16:03;;;;;;;3.20;3.00;;;;;;;;;;10060858;28;20136;-74
2023/11/27 00:20:55;;;;;;;3.63;3.33;;;;;;;;;;10058407;28;20100;-74
2023/11/27 00:25:47;;;;;;;5.97;3.10;;;;;;;;;;10066733;28;20085;-74
2023/11/27 00:30:38;;;;;;;3.03;2.72;;;;;;;;;;10062319;28;20071;-73
2023/11/27 00:35:30;;;;;;;6.40;2.95;;;;;;;;;;10066460;28;20077;-74
2023/11/27 00:40:22;;;;;;;5.15;3.08;;;;;;;;;;10069018;28;20104;-74
2023/11/27 00:45:14;;;;;;;9.00;3.95;;;;;;;;;;10068674;28;20038;-74
2023/11/27 00:50:07;;;;;;;10.00;2.80;;;;;;;;;;10067513;28;20376;-74
2023/11/27 00:54:59;;;;;;;4.30;3.33;;;;;;;;;;10066945;28;20054;-74
2023/11/27 00:59:51;;;;;;;3.05;2.75;;;;;;;;;;10065864;28;20060;-74
2023/11/27 01:04:43;;;;;;;5.80;3.33;;;;;;;;;;10066530;28;20120;-74
2023/11/27 01:09:37;;;;;;;5.28;3.38;;;;;;;;;;10061217;28;20037;-71
2023/11/27 01:14:28;;;;;;;5.38;4.30;;;;;;;;;;10057561;28;20038;-74
2023/11/27 01:19:21;;;;;;;3.70;3.40;;;;;;;;;;10042973;28;20049;-74
2023/11/27 01:24:13;;;;;;;3.85;3.42;;;;;;;;;;10056409;28;20052;-74
2023/11/27 01:29:05;;;;;;;3.83;3.53;;;;;;;;;;10057884;28;20045;-74
2023/11/27 01:33:57;;;;;;;3.60;3.20;;;;;;;;;;10060648;28;20041;-71
2023/11/27 01:38:50;;;;;;;4.40;3.38;;;;;;;;;;10057613;28;20041;-74
2023/11/27 01:43:42;;;;;;;6.45;4.00;;;;;;;;;;10064876;28;20056;-71
2023/11/27 01:48:34;;;;;;;5.47;3.58;;;;;;;;;;10062518;28;20033;-74
2023/11/27 01:53:26;;;;;;;5.25;3.75;;;;;;;;;;10064553;28;20053;-74
2023/11/27 01:58:19;;;;;;;2.50;2.30;;;;;;;;;;10047733;28;20124;-74
2023/11/27 02:03:11;;;;;;;3.03;2.70;;;;;;;;;;10051471;28;20053;-73
2023/11/27 02:08:03;;;;;;;3.20;2.92;;;;;;;;;;10054905;28;20477;-74
2023/11/27 02:12:55;;;;;;;3.17;2.88;;;;;;;;;;10051521;28;20049;-73
2023/11/27 02:17:47;;;;;;;4.55;3.28;;;;;;;;;;10059971;28;20544;-72
2023/11/27 02:22:39;;;;;;;3.28;2.78;;;;;;;;;;10063106;28;20090;-74
2023/11/27 02:27:32;;;;;;;3.88;3.45;;;;;;;;;;10050967;28;20049;-72
2023/11/27 02:32:24;;;;;;;2.58;2.33;;;;;;;;;;10059327;28;20088;-72
2023/11/27 02:37:16;;;;;;;2.65;2.45;;;;;;;;;;10059026;28;20045;-72
2023/11/27 02:42:09;;;;;;;3.70;3.33;;;;;;;;;;10063395;28;20126;-72
2023/11/27 02:47:01;;;;;;;3.97;2.83;;;;;;;;;;10065189;28;20042;-72
2023/11/27 02:51:53;;;;;;;2.72;2.53;;;;;;;;;;10061667;28;20056;-73
2023/11/27 02:56:46;;;;;;;4.32;3.20;;;;;;;;;;10053000;28;20046;-72
2023/11/27 03:01:38;;;;;;;2.80;2.60;;;;;;;;;;10046222;28;20077;-73
2023/11/27 03:06:30;;;;;;;3.20;2.90;;;;;;;;;;10053953;28;20041;-72
2023/11/27 03:11:22;;;;;;;3.20;2.88;;;;;;;;;;10058700;28;20076;-72
2023/11/27 03:16:14;;;;;;;3.78;2.50;;;;;;;;;;10056434;28;20037;-72
2023/11/27 03:21:06;;;;;;;5.97;3.88;;;;;;;;;;10041604;28;20061;-73
2023/11/27 03:26:01;;;;;;;4.43;3.33;;;;;;;;;;10045231;28;20440;-72
2023/11/27 03:30:54;;;;;;;9.15;5.13;;;;;;;;;;10060922;28;20068;-73
2023/11/27 03:35:46;;;;;;;8.65;6.78;;;;;;;;;;10045589;28;20077;-72
2023/11/27 03:40:38;;;;;;;40.92;28.63;;;;;;;;;;10061160;28;20049;-73
2023/11/27 03:45:29;;;;;;;11.25;7.82;;;;;;;;;;10053732;28;20030;-72
2023/11/27 03:50:23;;;;;;;5.88;4.95;;;;;;;;;;10061615;28;20069;-73
2023/11/27 03:55:15;;;;;;;12.93;9.45;;;;;;;;;;10064499;28;20026;-73
2023/11/27 04:00:09;;;;;;;6.30;5.30;;;;;;;;;;10057284;28;20041;-73
2023/11/27 04:05:04;;;;;;;8.65;6.72;;;;;;;;;;10066028;28;20061;-73
2023/11/27 04:09:56;;;;;;;6.05;4.55;;;;;;;;;;10049279;28;20473;-72
2023/11/27 04:14:48;;;;;;;5.35;4.65;;;;;;;;;;10069507;28;20041;-73
2023/11/27 04:19:40;;;;;;;5.05;4.55;;;;;;;;;;10042422;28;20053;-73
2023/11/27 04:24:32;;;;;;;9.05;6.57;;;;;;;;;;10063257;28;20116;-72
2023/11/27 04:29:24;;;;;;;9.38;6.28;;;;;;;;;;10053261;28;20551;-72
2023/11/27 04:34:17;;;;;;;7.07;6.05;;;;;;;;;;10062411;28;20453;-72
2023/11/27 04:39:10;;;;;;;8.98;6.10;;;;;;;;;;10065258;28;20049;-73
2023/11/27 04:44:03;;;;;;;4.95;4.00;;;;;;;;;;10058201;28;20038;-73
2023/11/27 04:48:55;;;;;;;11.25;4.80;;;;;;;;;;10063558;28;20064;-72
2023/11/27 04:53:47;;;;;;;5.53;4.90;;;;;;;;;;10064881;28;20063;-73
2023/11/27 04:58:39;;;;;;;7.20;5.15;;;;;;;;;;10051365;28;20046;-73
2023/11/27 05:03:31;;;;;;;6.13;5.15;;;;;;;;;;10060755;28;20079;-72
2023/11/27 05:08:23;;;;;;;6.28;4.85;;;;;;;;;;10043549;28;20045;-73
2023/11/27 05:13:15;;;;;;;6.65;5.57;;;;;;;;;;10053813;28;20049;-73
2023/11/27 05:18:08;;;;;;;4.43;3.50;;;;;;;;;;10059937;28;20060;-73
2023/11/27 05:23:03;;;;;;;6.30;3.70;;;;;;;;;;10048053;28;20042;-73
2023/11/27 05:27:55;;;;;;;24.42;17.77;;;;;;;;;;10050632;28;20050;-73
2023/11/27 05:32:47;;;;;;;8.93;6.78;;;;;;;;;;10049692;28;20052;-73
2023/11/27 05:37:39;;;;;;;5.57;4.22;;;;;;;;;;10064573;28;20041;-72
2023/11/27 05:42:34;;;;;;;8.10;6.28;;;;;;;;;;10064286;28;20160;-72
2023/11/27 05:47:25;;;;;;;9.65;6.10;;;;;;;;;;10065047;28;20047;-72
2023/11/27 05:52:18;;;;;;;15.82;8.23;;;;;;;;;;10061549;28;20054;-72
2023/11/27 05:57:09;;;;;;;40.22;23.38;;;;;;;;;;10057584;28;20404;-72
2023/11/27 06:02:01;;;;;;;7.78;6.30;;;;;;;;;;10054703;28;20049;-72
2023/11/27 06:06:53;;;;;;;8.13;6.57;;;;;;;;;;10060385;28;20045;-72
2023/11/27 06:11:46;;;;;;;10.30;8.45;;;;;;;;;;10053230;28;20042;-73
2023/11/27 06:16:38;;;;;;;12.45;7.57;;;;;;;;;;10045393;28;20053;-73
2023/11/27 06:21:30;;;;;;;12.57;8.40;;;;;;;;;;10047707;28;20472;-73
2023/11/27 06:26:22;;;;;;;9.55;5.80;;;;;;;;;;10048055;28;20029;-72
2023/11/27 06:31:15;;;;;;;10.25;6.68;;;;;;;;;;10045945;28;20041;-73
2023/11/27 06:36:07;;;;;;;7.60;5.53;;;;;;;;;;10048112;28;20140;-72
2023/11/27 06:40:59;;;;;;;8.85;7.47;;;;;;;;;;10065704;28;20129;-73
2023/11/27 06:45:52;;;;;;;12.65;8.73;;;;;;;;;;10065105;28;20056;-73
2023/11/27 06:50:44;;;;;;;13.45;12.15;;;;;;;;;;10064774;28;20103;-73
2023/11/27 06:55:36;;;;;;;13.63;10.02;;;;;;;;;;10061783;28;20132;-72
2023/11/27 07:00:31;;;;;;;10.50;7.70;;;;;;;;;;10064812;28;20041;-72
2023/11/27 07:05:23;;;;;;;17.30;13.82;;;;;;;;;;10064201;28;20408;-73
2023/11/27 07:10:15;;;;;;;8.93;8.07;;;;;;;;;;10072834;28;20365;-72
2023/11/27 07:15:11;;;;;;;9.35;8.43;;;;;;;;;;10071354;28;20365;-72
2023/11/27 07:20:05;;;;;;;8.85;5.88;;;;;;;;;;10059505;28;20472;-72
2023/11/27 07:24:58;;;;;;;8.98;5.10;;;;;;;;;;10072120;28;20050;-72
2023/11/27 07:29:52;;;;;;;4.85;4.20;;;;;;;;;;10069383;28;20103;-72
2023/11/27 07:34:44;;;;;;;9.93;5.20;;;;;;;;;;10070619;28;20176;-72
2023/11/27 07:39:37;;;;;;;12.20;7.05;;;;;;;;;;10071942;28;20140;-72
2023/11/27 07:44:29;;;;;;;8.50;6.95;;;;;;;;;;10069381;28;20053;-72
2023/11/27 07:49:21;;;;;;;4.22;3.83;;;;;;;;;;10071584;28;20045;-72
2023/11/27 07:54:13;;;;;;;10.95;6.05;;;;;;;;;;10068290;28;20091;-72
2023/11/27 07:59:04;;;;;;;23.08;6.15;;;;;;;;;;10064444;28;20498;-73
2023/11/27 08:03:57;;;;;;;7.25;4.68;;;;;;;;;;10065675;28;20442;-73
2023/11/27 08:08:50;;;;;;;7.78;5.22;;;;;;;;;;10065799;28;20046;-73
2023/11/27 08:13:43;;;;;;;4.93;3.92;;;;;;;;;;10066565;28;20053;-72
2023/11/27 08:18:38;;;;;;;8.50;4.82;;;;;;;;;;10067606;28;20050;-72
2023/11/27 08:23:34;;;;;;;11.23;7.63;;;;;;;;;;10066228;28;20124;-72
2023/11/27 08:28:25;;;;;;;8.93;6.18;;;;;;;;;;10068054;28;20342;-72
2023/11/27 08:33:17;;;;;;;7.40;5.93;;;;;;;;;;10065534;28;20425;-72
2023/11/27 08:38:09;;;;;;;8.65;6.43;;;;;;;;;;10067097;28;20519;-72
2023/11/27 08:43:01;;;;;;;6.40;5.28;;;;;;;;;;10062680;28;20064;-72
2023/11/27 08:47:55;;;;;;;8.07;7.10;;;;;;;;;;10057295;28;20365;-72
2023/11/27 08:52:47;;;;;;;11.82;5.55;;;;;;;;;;10066007;28;20422;-72
2023/11/27 08:57:39;;;;;;;11.60;6.78;;;;;;;;;;10066378;28;20118;-72
2023/11/27 09:02:31;;;;;;;14.45;7.22;;;;;;;;;;10062053;28;20107;-72
2023/11/27 09:07:23;;;;;;;12.70;7.85;;;;;;;;;;10065482;28;20045;-72
2023/11/27 09:12:15;;;;;;;9.95;6.68;;;;;;;;;;10065322;28;20480;-72
2023/11/27 09:17:07;;;;;;;13.75;9.30;;;;;;;;;;10063877;28;20049;-72
2023/11/27 09:22:00;;;;;;;6.88;5.10;;;;;;;;;;10064455;28;20049;-72
2023/11/27 09:26:52;;;;;;;9.00;6.05;;;;;;;;;;10063803;28;20045;-72
2023/11/27 09:31:44;;;;;;;8.73;5.00;;;;;;;;;;10064623;28;20057;-72
2023/11/27 09:36:36;;;;;;;13.95;8.88;;;;;;;;;;10064505;28;20057;-72
2023/11/27 09:41:28;;;;;;;13.00;7.30;;;;;;;;;;10064686;28;20103;-72
2023/11/27 09:46:21;;;;;;;7.88;5.78;;;;;;;;;;10063081;28;20125;-72
2023/11/27 09:51:13;;;;;;;8.88;5.75;;;;;;;;;;10063106;28;20037;-72
2023/11/27 09:56:06;;;;;;;12.68;5.78;;;;;;;;;;10063449;28;20465;-71
2023/11/27 10:00:58;;;;;;;5.95;4.88;;;;;;;;;;10079483;28;20049;-72
2023/11/27 10:05:50;;;;;;;9.27;4.57;;;;;;;;;;10063739;28;20061;-72
2023/11/27 10:10:44;;;;;;;9.43;6.55;;;;;;;;;;10062830;28;20419;-72
2023/11/27 10:15:36;;;;;;;10.77;5.93;;;;;;;;;;10063189;28;21875;-72
2023/11/27 10:20:29;;;;;;;8.20;5.28;;;;;;;;;;10063290;28;20376;-72
2023/11/27 10:25:23;;;;;;;7.57;6.13;;;;;;;;;;10063431;28;20128;-72
2023/11/27 10:30:20;;;;;;;5.60;5.00;;;;;;;;;;10054595;28;20061;-72
2023/11/27 10:35:13;;;;;;;11.18;4.60;;;;;;;;;;10062950;28;20049;-72
2023/11/27 10:40:14;;;;;;;10.35;5.25;;;;;;;;;;10069870;28;20387;-72
2023/11/27 10:45:08;;;;;;;8.40;6.15;;;;;;;;;;10070468;28;20060;-72
2023/11/27 10:50:00;;;;;;;19.08;11.07;;;;;;;;;;10067920;28;20044;-72
2023/11/27 10:54:54;;;;;;;8.80;6.15;;;;;;;;;;10056632;28;20042;-72
2023/11/27 10:59:46;;;;;;;9.10;6.75;;;;;;;;;;10057673;28;20050;-72
2023/11/27 11:04:50;;;;;;;7.13;6.43;;;;;;;;;;10057047;28;20049;-72
2023/11/27 11:09:44;;;;;;;8.73;5.88;;;;;;;;;;10059544;28;20108;-72
2023/11/27 11:14:37;;;;;;;11.23;8.70;;;;;;;;;;10056626;28;20477;-72
2023/11/27 11:19:48;;;;;;;6.93;6.00;;;;;;;;;;10059764;28;20057;-72
2023/11/27 11:24:56;;;;;;;7.00;5.75;;;;;;;;;;10065070;28;20046;-71
2023/11/27 11:29:51;;;;;;;7.43;5.80;;;;;;;;;;10068376;28;20117;-73
2023/11/27 11:34:49;;;;;;;9.85;6.05;;;;;;;;;;10069817;28;20045;-73
2023/11/27 11:39:42;;;;;;;7.25;6.53;;;;;;;;;;10069060;28;20061;-73
2023/11/27 11:44:35;;;;;;;8.93;7.30;;;;;;;;;;10068794;28;20057;-74
2023/11/27 11:49:30;;;;;;;9.68;5.95;;;;;;;;;;10067181;28;20045;-76
2023/11/27 11:54:34;;;;;;;14.63;5.40;;;;;;;;;;10066635;28;20114;-74
2023/11/27 11:59:37;;;;;;;7.68;6.65;;;;;;;;;;10059240;28;20084;-74
2023/11/27 12:04:29;;;;;;;10.32;6.32;;;;;;;;;;10065740;28;20046;-74
2023/11/27 12:09:23;;;;;;;11.38;8.43;;;;;;;;;;10068254;28;20047;-74
2023/11/27 12:14:18;;;;;;;11.43;6.25;;;;;;;;;;10067676;28;20045;-74
2023/11/27 12:19:10;;;;;;;7.65;6.32;;;;;;;;;;10068710;28;20089;-74
2023/11/27 12:24:05;;;;;;;7.93;6.38;;;;;;;;;;10067924;28;20050;-74
2023/11/27 12:28:57;;;;;;;7.80;6.07;;;;;;;;;;10068130;28;20069;-73
2023/11/27 12:33:49;;;;;;;12.70;7.55;;;;;;;;;;10068307;28;20125;-74
2023/11/27 12:38:41;;;;;;;13.60;8.23;;;;;;;;;;10068553;28;20433;-74
2023/11/27 12:43:36;;;;;;;19.45;12.73;;;;;;;;;;10068289;28;20091;-74
2023/11/27 12:48:33;;;;;;;11.57;7.97;;;;;;;;;;10067203;28;20044;-74
2023/11/27 12:53:24;;;;;;;14.23;9.95;;;;;;;;;;10068140;28;20499;-74
2023/11/27 12:58:23;;;;;;;13.20;10.82;;;;;;;;;;10066786;28;20048;-74
2023/11/27 13:03:21;;;;;;;15.00;10.55;;;;;;;;;;10067017;28;20148;-74
2023/11/27 13:08:14;;;;;;;12.48;9.90;;;;;;;;;;10066763;28;20041;-74
2023/11/27 13:13:11;;;;;;;18.75;11.25;;;;;;;;;;10066182;28;20057;-74
2023/11/27 13:18:06;;;;;;;16.73;11.55;;;;;;;;;;10066144;28;20053;-74
2023/11/27 13:23:01;;;;;;;21.50;11.75;;;;;;;;;;10067019;28;20122;-74
2023/11/27 13:27:53;;;;;;;15.55;10.20;;;;;;;;;;10066152;28;20099;-74
2023/11/27 13:32:45;;;;;;;13.40;11.32;;;;;;;;;;10064222;28;20073;-74
2023/11/27 13:37:38;;;;;;;15.20;10.38;;;;;;;;;;10064337;28;20500;-74
2023/11/27 13:42:33;;;;;;;13.48;12.07;;;;;;;;;;10064967;28;20045;-73
2023/11/27 13:47:26;;;;;;;17.83;13.75;;;;;;;;;;10065566;28;20361;-74
2023/11/27 13:52:18;;;;;;;14.60;11.93;;;;;;;;;;10064817;28;20065;-74
2023/11/27 13:57:10;;;;;;;17.30;13.45;;;;;;;;;;10064900;28;20045;-74
2023/11/27 14:02:09;;;;;;;17.38;13.13;;;;;;;;;;10054481;28;20525;-74
2023/11/27 14:07:06;;;;;;;20.73;13.43;;;;;;;;;;10067620;28;20852;-74
2023/11/27 14:12:00;;;;;;;19.13;11.95;;;;;;;;;;10062439;28;20076;-74
2023/11/27 14:17:12;;;;;;;15.52;14.02;;;;;;;;;;10064655;28;20041;-74
2023/11/27 14:22:55;;;;;;;20.85;13.35;;;;;;;;;;10064735;28;20049;-74
2023/11/27 14:27:56;;;;;;;16.73;15.02;;;;;;;;;;10059429;28;20042;-74
2023/11/27 14:32:48;;;;;;;21.65;15.82;;;;;;;;;;10064064;28;20065;-74
2023/11/27 14:37:40;;;;;;;20.02;14.55;;;;;;;;;;10064755;28;20099;-74
2023/11/27 14:42:32;;;;;;;18.13;14.65;;;;;;;;;;10061245;28;20049;-74
2023/11/27 14:47:24;;;;;;;16.50;14.88;;;;;;;;;;10060523;28;20037;-74
2023/11/27 14:52:16;;;;;;;21.58;15.75;;;;;;;;;;10052603;28;20042;-74
2023/11/27 14:57:11;;;;;;;17.45;15.60;;;;;;;;;;10051565;28;20073;-76
2023/11/27 15:02:08;;;;;;;17.85;15.45;;;;;;;;;;10063359;28;20048;-74
2023/11/27 15:07:01;;;;;;;18.73;16.42;;;;;;;;;;10051457;28;20380;-74
2023/11/27 15:11:54;;;;;;;25.95;19.58;;;;;;;;;;10055613;28;20377;-73
2023/11/27 15:16:48;;;;;;;22.27;18.80;;;;;;;;;;10046426;28;20042;-72
2023/11/27 15:21:42;;;;;;;18.65;16.73;;;;;;;;;;10055294;28;20049;-75
2023/11/27 15:26:34;;;;;;;23.70;21.05;;;;;;;;;;10064730;28;20049;-75
2023/11/27 15:31:31;;;;;;;27.60;20.02;;;;;;;;;;10064644;28;20458;-74
2023/11/27 15:36:24;;;;;;;20.83;18.83;;;;;;;;;;10069057;28;20041;-74
2023/11/27 15:41:18;;;;;;;18.60;16.77;;;;;;;;;;10065676;28;20037;-73
2023/11/27 15:46:11;;;;;;;19.15;17.13;;;;;;;;;;10065427;28;20044;-73
2023/11/27 15:51:05;;;;;;;28.75;22.55;;;;;;;;;;10052154;28;20350;-73
2023/11/27 15:55:57;;;;;;;20.25;17.70;;;;;;;;;;10050758;28;20050;-74
2023/11/27 16:00:49;;;;;;;44.35;20.23;;;;;;;;;;10069004;28;20376;-73
2023/11/27 16:05:42;;;;;;;28.27;23.95;;;;;;;;;;10057156;28;20042;-74
2023/11/27 16:10:36;;;;;;;25.95;21.88;;;;;;;;;;10064333;28;20046;-73
2023/11/27 16:15:28;;;;;;;25.75;21.63;;;;;;;;;;10060530;28;20472;-73
2023/11/27 16:20:20;;;;;;;43.72;30.08;;;;;;;;;;10063619;28;20140;-75
2023/11/27 16:25:16;;;;;;;41.50;26.58;;;;;;;;;;10060467;28;20037;-75
2023/11/27 16:30:09;;;;;;;31.98;23.98;;;;;;;;;;10065538;28;20064;-74
2023/11/27 16:40:35;;;;;;;28.23;22.92;;;;;;;;;;9990663;28;20392;-74
2023/11/27 16:45:27;;;;;;;31.67;22.92;;;;;;;;;;10059633;28;20049;-73
2023/11/27 16:50:21;;;;;;;34.30;27.25;;;;;;;;;;10062928;28;20041;-73
2023/11/27 16:55:19;;;;;;;38.00;27.52;;;;;;;;;;10061906;28;20112;-73
2023/11/27 17:00:11;;;;;;;36.00;27.60;;;;;;;;;;10064269;28;20046;-75
2023/11/27 17:05:07;;;;;;;47.63;33.22;;;;;;;;;;10063719;28;20041;-73
2023/11/27 17:10:00;;;;;;;57.35;43.92;;;;;;;;;;10061748;28;20059;-73
2023/11/27 17:14:52;;;;;;;35.03;26.73;;;;;;;;;;10061942;28;20406;-73
2023/11/27 17:19:44;;;;;;;30.02;24.77;;;;;;;;;;10061381;28;20054;-76
2023/11/27 17:24:36;;;;;;;33.13;25.83;;;;;;;;;;10062056;28;20124;-74
2023/11/27 17:29:27;;;;;;;31.38;27.17;;;;;;;;;;10063571;28;20041;-73
2023/11/27 17:34:20;;;;;;;28.48;23.60;;;;;;;;;;10063981;28;20057;-73
2023/11/27 17:39:13;;;;;;;25.73;20.98;;;;;;;;;;10061530;28;20045;-75
2023/11/27 17:44:05;;;;;;;23.20;20.23;;;;;;;;;;10063516;28;20136;-73
2023/11/27 17:48:57;;;;;;;23.35;19.90;;;;;;;;;;10062427;28;20476;-73
2023/11/27 17:53:50;;;;;;;25.52;21.25;;;;;;;;;;10062871;28;20190;-74
2023/11/27 17:58:42;;;;;;;31.50;26.23;;;;;;;;;;10062857;28;20041;-72
2023/11/27 18:03:35;;;;;;;27.23;21.33;;;;;;;;;;10061410;28;20140;-75
2023/11/27 18:08:28;;;;;;;28.00;19.65;;;;;;;;;;10062009;28;20046;-73
2023/11/27 18:13:21;;;;;;;24.83;20.75;;;;;;;;;;10062974;28;20045;-73
2023/11/27 18:18:12;;;;;;;23.08;20.55;;;;;;;;;;10062763;28;20045;-73
2023/11/27 18:23:04;;;;;;;24.40;21.15;;;;;;;;;;10063206;28;20057;-73
2023/11/27 18:27:58;;;;;;;27.55;21.58;;;;;;;;;;10054377;28;20049;-73
2023/11/27 18:32:50;;;;;;;36.53;28.83;;;;;;;;;;10052925;28;20041;-73
2023/11/27 18:37:47;;;;;;;29.70;24.10;;;;;;;;;;10057195;28;20046;-73
2023/11/27 18:42:41;;;;;;;34.65;25.83;;;;;;;;;;10064519;28;20080;-73
2023/11/27 18:47:34;;;;;;;31.85;25.65;;;;;;;;;;10064891;28;20353;-73
2023/11/27 18:52:27;;;;;;;25.30;21.80;;;;;;;;;;10064130;28;20041;-73
2023/11/27 18:57:20;;;;;;;34.40;25.65;;;;;;;;;;10064996;28;20449;-73
2023/11/27 19:02:13;;;;;;;21.52;19.27;;;;;;;;;;10071809;28;20034;-73
2023/11/27 19:07:05;;;;;;;25.30;22.58;;;;;;;;;;10070593;28;20049;-73
2023/11/27 19:11:57;;;;;;;22.48;19.60;;;;;;;;;;10072163;28;20042;-73
2023/11/27 19:16:49;;;;;;;19.88;17.75;;;;;;;;;;10071339;28;20057;-73
2023/11/27 19:21:41;;;;;;;21.75;19.55;;;;;;;;;;10071673;28;20093;-75
2023/11/27 19:26:34;;;;;;;38.92;32.00;;;;;;;;;;10071963;28;20046;-73
2023/11/27 19:31:27;;;;;;;30.08;24.02;;;;;;;;;;10071346;28;20049;-73
2023/11/27 19:36:20;;;;;;;26.63;23.83;;;;;;;;;;10071058;28;20065;-72
2023/11/27 19:41:12;;;;;;;22.70;19.67;;;;;;;;;;10070584;28;20060;-73
2023/11/27 19:46:05;;;;;;;26.08;23.02;;;;;;;;;;10071047;28;20095;-73
2023/11/27 19:50:57;;;;;;;32.17;25.63;;;;;;;;;;10071121;28;20069;-73
2023/11/27 19:55:56;;;;;;;24.10;21.70;;;;;;;;;;10069363;28;20120;-73
2023/11/27 20:00:48;;;;;;;31.25;23.30;;;;;;;;;;10070827;28;20483;-73
2023/11/27 20:05:41;;;;;;;26.50;22.23;;;;;;;;;;10069020;28;20046;-73
2023/11/27 20:10:33;;;;;;;35.42;29.92;;;;;;;;;;10069489;28;20478;-73
2023/11/27 20:15:25;;;;;;;23.80;21.33;;;;;;;;;;10069302;28;20468;-73
2023/11/27 20:20:17;;;;;;;32.08;27.13;;;;;;;;;;10068634;28;20046;-73
2023/11/27 20:25:11;;;;;;;27.30;23.88;;;;;;;;;;10069291;28;20033;-73
2023/11/27 20:30:04;;;;;;;30.67;24.77;;;;;;;;;;10064016;28;20052;-76
2023/11/27 20:34:56;;;;;;;29.45;24.42;;;;;;;;;;10054492;28;20057;-74
2023/11/27 20:39:48;;;;;;;47.22;36.17;;;;;;;;;;10084546;28;20042;-77
2023/11/27 20:44:40;;;;;;;34.40;26.20;;;;;;;;;;10074550;28;20107;-76
2023/11/27 20:49:44;;;;;;;30.35;25.55;;;;;;;;;;10063497;28;20545;-75
2023/11/27 20:54:37;;;;;;;33.15;28.58;;;;;;;;;;10064601;28;20455;-75
2023/11/27 20:59:31;;;;;;;28.05;25.02;;;;;;;;;;10067429;28;20038;-75
2023/11/27 21:04:23;;;;;;;28.77;25.42;;;;;;;;;;10066547;28;20082;-74
2023/11/27 21:09:15;;;;;;;27.15;24.27;;;;;;;;;;10066685;28;20047;-73
2023/11/27 21:14:06;;;;;;;44.13;34.90;;;;;;;;;;10067267;28;20045;-73
2023/11/27 21:18:58;;;;;;;44.60;36.83;;;;;;;;;;10065840;28;20041;-76
2023/11/27 21:23:50;;;;;;;34.55;29.75;;;;;;;;;;10065390;28;20041;-75
2023/11/27 21:28:42;;;;;;;36.92;32.88;;;;;;;;;;10065864;28;20110;-75
2023/11/27 21:33:36;;;;;;;36.95;29.52;;;;;;;;;;10066420;28;20469;-76
2023/11/27 21:38:28;;;;;;;33.35;29.83;;;;;;;;;;10065366;28;20041;-76
2023/11/27 21:43:20;;;;;;;34.58;30.88;;;;;;;;;;10065753;28;20117;-76
2023/11/27 21:48:12;;;;;;;34.70;31.02;;;;;;;;;;10065592;28;20046;-76
2023/11/27 21:53:04;;;;;;;34.85;28.35;;;;;;;;;;10063816;28;20076;-76
2023/11/27 21:57:56;;;;;;;32.25;28.75;;;;;;;;;;10065421;28;20563;-75
2023/11/27 22:02:48;;;;;;;36.65;32.72;;;;;;;;;;10054642;28;20077;-75
2023/11/27 22:07:40;;;;;;;31.92;27.40;;;;;;;;;;10057701;28;20041;-75
2023/11/27 22:12:32;;;;;;;33.15;29.70;;;;;;;;;;10057983;28;20433;-76
2023/11/27 22:17:24;;;;;;;31.63;28.25;;;;;;;;;;10057320;28;20490;-76
2023/11/27 22:22:15;;;;;;;30.38;27.05;;;;;;;;;;10053562;28;20053;-76
2023/11/27 22:27:08;;;;;;;31.10;27.88;;;;;;;;;;10064191;28;20132;-76
2023/11/27 22:32:00;;;;;;;28.40;25.50;;;;;;;;;;10055666;28;20137;-73
2023/11/27 22:36:52;;;;;;;31.75;26.20;;;;;;;;;;10055541;28;20373;-74
2023/11/27 22:41:45;;;;;;;28.73;25.67;;;;;;;;;;10064025;28;20041;-76
2023/11/27 22:46:38;;;;;;;29.95;26.52;;;;;;;;;;10068313;28;20155;-74
2023/11/27 22:51:30;;;;;;;29.70;25.60;;;;;;;;;;10070183;28;20160;-76
2023/11/27 22:56:23;;;;;;;28.92;25.10;;;;;;;;;;10064556;28;20350;-74
2023/11/27 23:01:15;;;;;;;32.35;27.45;;;;;;;;;;10068128;28;20029;-74
2023/11/27 23:06:11;;;;;;;28.75;25.75;;;;;;;;;;10058779;28;20103;-74
2023/11/27 23:11:23;;;;;;;40.85;31.98;;;;;;;;;;10068762;28;20445;-74
2023/11/27 23:16:15;;;;;;;38.75;30.27;;;;;;;;;;10067547;28;20124;-74
2023/11/27 23:21:08;;;;;;;35.70;29.88;;;;;;;;;;10068089;28;20081;-74
2023/11/27 23:26:00;;;;;;;31.85;28.55;;;;;;;;;;10068259;28;20042;-74
2023/11/27 23:30:52;;;;;;;31.35;28.08;;;;;;;;;;10067395;28;20465;-74
2023/11/27 23:35:44;;;;;;;26.30;23.55;;;;;;;;;;10067727;28;20041;-74
2023/11/27 23:40:37;;;;;;;27.13;24.23;;;;;;;;;;10062285;28;20072;-74
2023/11/27 23:45:28;;;;;;;28.17;23.95;;;;;;;;;;10065580;28;20045;-74
2023/11/27 23:50:20;;;;;;;33.53;22.98;;;;;;;;;;10067998;28;20038;-75
2023/11/27 23:55:12;;;;;;;35.58;23.80;;;;;;;;;;10066903;28;20067;-75
